sensor_id;sensor_type;location;lat;lon;timestamp;pressure;altitude;pressure_sealevel;temperature;humidity
8294;BME280;4185;41.506;24.938;2023-03-14T00:00:33;93763.13;;;0.59;62.99
8294;BME280;4185;41.506;24.938;2023-03-14T00:03:01;93756.69;;;0.73;62.38
8294;BME280;4185;41.506;24.938;2023-03-14T00:05:28;93754.88;;;0.70;62.82
8294;BME280;4185;41.506;24.938;2023-03-14T00:07:55;93748.19;;;0.78;63.20
8294;BME280;4185;41.506;24.938;2023-03-14T00:10:21;93751.03;;;0.87;62.89
8294;BME280;4185;41.506;24.938;2023-03-14T00:12:48;93750.97;;;0.74;63.72
8294;BME280;4185;41.506;24.938;2023-03-14T00:15:15;93741.50;;;0.70;63.46
8294;BME280;4185;41.506;24.938;2023-03-14T00:17:43;93744.84;;;0.74;63.27
8294;BME280;4185;41.506;24.938;2023-03-14T00:20:12;93744.00;;;0.77;62.75
8294;BME280;4185;41.506;24.938;2023-03-14T00:22:40;93746.84;;;0.70;62.33
8294;BME280;4185;41.506;24.938;2023-03-14T00:25:08;93743.09;;;0.67;62.62
8294;BME280;4185;41.506;24.938;2023-03-14T00:27:35;93744.59;;;0.68;62.93
8294;BME280;4185;41.506;24.938;2023-03-14T00:30:03;93736.66;;;0.65;62.99
8294;BME280;4185;41.506;24.938;2023-03-14T00:32:30;93737.06;;;0.63;62.89
8294;BME280;4185;41.506;24.938;2023-03-14T00:34:57;93738.66;;;0.61;63.50
8294;BME280;4185;41.506;24.938;2023-03-14T00:37:25;93738.75;;;0.57;64.20
8294;BME280;4185;41.506;24.938;2023-03-14T00:39:52;93735.47;;;0.50;63.69
8294;BME280;4185;41.506;24.938;2023-03-14T00:42:18;93733.78;;;0.40;63.85
8294;BME280;4185;41.506;24.938;2023-03-14T00:44:45;93729.34;;;0.33;64.68
8294;BME280;4185;41.506;24.938;2023-03-14T00:47:12;93732.44;;;0.32;64.76
8294;BME280;4185;41.506;24.938;2023-03-14T00:49:39;93720.72;;;0.26;64.94
8294;BME280;4185;41.506;24.938;2023-03-14T00:52:08;93721.69;;;0.16;65.25
8294;BME280;4185;41.506;24.938;2023-03-14T00:54:36;93719.16;;;0.09;65.62
8294;BME280;4185;41.506;24.938;2023-03-14T00:57:03;93725.19;;;0.13;65.38
8294;BME280;4185;41.506;24.938;2023-03-14T00:59:30;93718.88;;;0.23;65.44
8294;BME280;4185;41.506;24.938;2023-03-14T01:01:57;93711.00;;;0.16;65.17
8294;BME280;4185;41.506;24.938;2023-03-14T01:04:23;93710.84;;;0.07;65.60
8294;BME280;4185;41.506;24.938;2023-03-14T01:06:50;93704.53;;;0.17;65.88
8294;BME280;4185;41.506;24.938;2023-03-14T01:09:17;93713.63;;;0.19;65.83
8294;BME280;4185;41.506;24.938;2023-03-14T01:11:45;93712.13;;;0.18;65.25
8294;BME280;4185;41.506;24.938;2023-03-14T01:14:12;93711.84;;;0.13;65.72
8294;BME280;4185;41.506;24.938;2023-03-14T01:16:39;93705.91;;;0.05;65.91
8294;BME280;4185;41.506;24.938;2023-03-14T01:19:06;93706.31;;;0.03;65.91
8294;BME280;4185;41.506;24.938;2023-03-14T01:21:34;93702.16;;;0.03;65.74
8294;BME280;4185;41.506;24.938;2023-03-14T01:24:02;93696.03;;;0.02;66.13
8294;BME280;4185;41.506;24.938;2023-03-14T01:26:32;93699.47;;;0.03;66.33
8294;BME280;4185;41.506;24.938;2023-03-14T01:29:01;93689.47;;;0.07;65.94
8294;BME280;4185;41.506;24.938;2023-03-14T01:31:27;93690.38;;;0.00;65.15
8294;BME280;4185;41.506;24.938;2023-03-14T01:33:54;93683.81;;;-0.15;65.94
8294;BME280;4185;41.506;24.938;2023-03-14T01:36:21;93680.91;;;-0.21;65.93
8294;BME280;4185;41.506;24.938;2023-03-14T01:38:48;93676.53;;;-0.31;66.70
8294;BME280;4185;41.506;24.938;2023-03-14T01:41:17;93673.03;;;-0.47;67.35
8294;BME280;4185;41.506;24.938;2023-03-14T01:43:45;93664.34;;;-0.51;67.39
8294;BME280;4185;41.506;24.938;2023-03-14T01:46:19;93665.56;;;-0.56;67.48
8294;BME280;4185;41.506;24.938;2023-03-14T01:48:52;93661.06;;;-0.59;67.88
8294;BME280;4185;41.506;24.938;2023-03-14T01:51:24;93653.19;;;-0.66;68.33
8294;BME280;4185;41.506;24.938;2023-03-14T01:53:52;93645.19;;;-0.66;68.26
8294;BME280;4185;41.506;24.938;2023-03-14T01:56:22;93651.75;;;-0.51;68.26
8294;BME280;4185;41.506;24.938;2023-03-14T01:58:51;93648.47;;;-0.39;67.75
8294;BME280;4185;41.506;24.938;2023-03-14T02:01:21;93652.09;;;-0.29;67.52
8294;BME280;4185;41.506;24.938;2023-03-14T02:03:52;93663.03;;;-0.43;67.70
8294;BME280;4185;41.506;24.938;2023-03-14T02:06:24;93662.97;;;-0.40;67.66
8294;BME280;4185;41.506;24.938;2023-03-14T02:08:52;93660.66;;;-0.38;67.30
8294;BME280;4185;41.506;24.938;2023-03-14T02:11:18;93655.38;;;-0.41;67.26
8294;BME280;4185;41.506;24.938;2023-03-14T02:13:46;93652.44;;;-0.47;66.81
8294;BME280;4185;41.506;24.938;2023-03-14T02:16:13;93654.81;;;-0.52;67.19
8294;BME280;4185;41.506;24.938;2023-03-14T02:18:41;93657.97;;;-0.57;67.44
8294;BME280;4185;41.506;24.938;2023-03-14T02:21:13;93651.28;;;-0.65;67.88
8294;BME280;4185;41.506;24.938;2023-03-14T02:23:50;93656.50;;;-0.78;68.37
8294;BME280;4185;41.506;24.938;2023-03-14T02:26:21;93653.94;;;-0.85;68.60
8294;BME280;4185;41.506;24.938;2023-03-14T02:28:51;93647.03;;;-0.82;68.44
8294;BME280;4185;41.506;24.938;2023-03-14T02:31:19;93649.28;;;-0.81;68.75
8294;BME280;4185;41.506;24.938;2023-03-14T02:33:47;93650.88;;;-0.83;68.90
8294;BME280;4185;41.506;24.938;2023-03-14T02:36:15;93651.75;;;-0.90;69.17
8294;BME280;4185;41.506;24.938;2023-03-14T02:38:47;93648.75;;;-0.92;69.47
8294;BME280;4185;41.506;24.938;2023-03-14T02:41:14;93644.22;;;-0.95;69.31
8294;BME280;4185;41.506;24.938;2023-03-14T02:43:41;93651.75;;;-0.90;68.95
8294;BME280;4185;41.506;24.938;2023-03-14T02:46:11;93653.25;;;-0.89;68.79
8294;BME280;4185;41.506;24.938;2023-03-14T02:48:41;93650.59;;;-0.89;69.15
8294;BME280;4185;41.506;24.938;2023-03-14T02:51:09;93644.09;;;-0.88;69.17
8294;BME280;4185;41.506;24.938;2023-03-14T02:53:37;93640.41;;;-0.94;69.41
8294;BME280;4185;41.506;24.938;2023-03-14T02:56:06;93639.56;;;-0.91;69.29
8294;BME280;4185;41.506;24.938;2023-03-14T02:58:33;93642.72;;;-0.96;70.14
8294;BME280;4185;41.506;24.938;2023-03-14T03:01:00;93648.88;;;-0.99;69.75
8294;BME280;4185;41.506;24.938;2023-03-14T03:03:28;93651.19;;;-1.01;69.99
8294;BME280;4185;41.506;24.938;2023-03-14T03:05:56;93652.34;;;-1.02;70.12
8294;BME280;4185;41.506;24.938;2023-03-14T03:08:25;93645.84;;;-1.01;70.24
8294;BME280;4185;41.506;24.938;2023-03-14T03:10:52;93649.69;;;-1.02;69.91
8294;BME280;4185;41.506;24.938;2023-03-14T03:13:19;93651.19;;;-1.01;70.11
8294;BME280;4185;41.506;24.938;2023-03-14T03:15:46;93654.84;;;-0.91;69.40
8294;BME280;4185;41.506;24.938;2023-03-14T03:18:13;93657.63;;;-0.79;69.75
8294;BME280;4185;41.506;24.938;2023-03-14T03:20:41;93656.34;;;-0.71;69.32
8294;BME280;4185;41.506;24.938;2023-03-14T03:23:08;93656.34;;;-0.71;68.57
8294;BME280;4185;41.506;24.938;2023-03-14T03:25:35;93651.81;;;-0.74;68.94
8294;BME280;4185;41.506;24.938;2023-03-14T03:28:01;93654.50;;;-0.74;69.16
8294;BME280;4185;41.506;24.938;2023-03-14T03:30:33;93653.94;;;-0.85;68.81
8294;BME280;4185;41.506;24.938;2023-03-14T03:33:00;93652.56;;;-0.93;69.21
8294;BME280;4185;41.506;24.938;2023-03-14T03:35:26;93647.38;;;-1.00;69.44
8294;BME280;4185;41.506;24.938;2023-03-14T03:37:55;93650.41;;;-1.01;69.67
8294;BME280;4185;41.506;24.938;2023-03-14T03:40:21;93651.19;;;-1.01;70.38
8294;BME280;4185;41.506;24.938;2023-03-14T03:42:48;93647.84;;;-1.05;70.32
8294;BME280;4185;41.506;24.938;2023-03-14T03:45:15;93642.34;;;-1.17;70.18
8294;BME280;4185;41.506;24.938;2023-03-14T03:47:42;93640.75;;;-1.15;70.36
8294;BME280;4185;41.506;24.938;2023-03-14T03:50:09;93650.81;;;-1.23;70.34
8294;BME280;4185;41.506;24.938;2023-03-14T03:52:36;93643.03;;;-1.13;70.15
8294;BME280;4185;41.506;24.938;2023-03-14T03:55:05;93650.50;;;-1.05;69.70
8294;BME280;4185;41.506;24.938;2023-03-14T03:57:32;93654.72;;;-1.07;70.70
8294;BME280;4185;41.506;24.938;2023-03-14T03:59:59;93651.31;;;-1.08;69.93
8294;BME280;4185;41.506;24.938;2023-03-14T04:02:25;93658.97;;;-1.10;70.21
8294;BME280;4185;41.506;24.938;2023-03-14T04:04:52;93657.50;;;-1.14;70.57
8294;BME280;4185;41.506;24.938;2023-03-14T04:07:19;93652.94;;;-1.14;70.18
8294;BME280;4185;41.506;24.938;2023-03-14T04:09:46;93649.09;;;-1.13;69.92
8294;BME280;4185;41.506;24.938;2023-03-14T04:12:14;93660.66;;;-1.19;70.63
8294;BME280;4185;41.506;24.938;2023-03-14T04:14:41;93653.88;;;-1.24;71.12
8294;BME280;4185;41.506;24.938;2023-03-14T04:17:07;93653.59;;;-1.30;70.89
8294;BME280;4185;41.506;24.938;2023-03-14T04:19:34;93653.69;;;-1.37;70.56
8294;BME280;4185;41.506;24.938;2023-03-14T04:22:01;93656.88;;;-1.45;70.93
8294;BME280;4185;41.506;24.938;2023-03-14T04:24:28;93662.22;;;-1.45;71.44
8294;BME280;4185;41.506;24.938;2023-03-14T04:26:54;93663.28;;;-1.39;71.51
8294;BME280;4185;41.506;24.938;2023-03-14T04:29:23;93660.16;;;-1.34;71.28
8294;BME280;4185;41.506;24.938;2023-03-14T04:31:49;93659.09;;;-1.40;71.45
8294;BME280;4185;41.506;24.938;2023-03-14T04:34:16;93664.09;;;-1.42;71.27
8294;BME280;4185;41.506;24.938;2023-03-14T04:36:43;93662.22;;;-1.45;71.45
8294;BME280;4185;41.506;24.938;2023-03-14T04:39:10;93663.84;;;-1.51;72.06
8294;BME280;4185;41.506;24.938;2023-03-14T04:41:36;93663.38;;;-1.46;71.78
8294;BME280;4185;41.506;24.938;2023-03-14T04:44:03;93657.25;;;-1.43;72.10
8294;BME280;4185;41.506;24.938;2023-03-14T04:46:31;93663.28;;;-1.39;71.76
8294;BME280;4185;41.506;24.938;2023-03-14T04:48:58;93661.81;;;-1.44;71.12
8294;BME280;4185;41.506;24.938;2023-03-14T04:51:25;93663.78;;;-1.48;71.47
8294;BME280;4185;41.506;24.938;2023-03-14T04:53:53;93668.00;;;-1.50;71.58
8294;BME280;4185;41.506;24.938;2023-03-14T04:56:20;93661.84;;;-1.47;71.80
8294;BME280;4185;41.506;24.938;2023-03-14T04:58:47;93661.53;;;-1.49;72.10
8294;BME280;4185;41.506;24.938;2023-03-14T05:01:14;93662.00;;;-1.54;72.11
8294;BME280;4185;41.506;24.938;2023-03-14T05:03:42;93654.00;;;-1.54;72.50
8294;BME280;4185;41.506;24.938;2023-03-14T05:06:08;93662.00;;;-1.54;71.95
8294;BME280;4185;41.506;24.938;2023-03-14T05:08:35;93656.25;;;-1.53;71.49
8294;BME280;4185;41.506;24.938;2023-03-14T05:11:02;93669.47;;;-1.46;72.03
8294;BME280;4185;41.506;24.938;2023-03-14T05:13:29;93671.66;;;-1.41;71.53
8294;BME280;4185;41.506;24.938;2023-03-14T05:16:04;93671.63;;;-1.37;71.55
8294;BME280;4185;41.506;24.938;2023-03-14T05:18:30;93671.53;;;-1.34;71.00
8294;BME280;4185;41.506;24.938;2023-03-14T05:20:59;93666.16;;;-1.30;71.20
8294;BME280;4185;41.506;24.938;2023-03-14T05:23:26;93663.38;;;-1.23;71.14
8294;BME280;4185;41.506;24.938;2023-03-14T05:25:53;93661.41;;;-1.19;71.30
8294;BME280;4185;41.506;24.938;2023-03-14T05:28:20;93660.69;;;-1.23;70.85
8294;BME280;4185;41.506;24.938;2023-03-14T05:30:47;93648.50;;;-1.20;71.09
8294;BME280;4185;41.506;24.938;2023-03-14T05:33:14;93645.84;;;-1.20;70.71
8294;BME280;4185;41.506;24.938;2023-03-14T05:35:42;93646.91;;;-1.18;71.07
8294;BME280;4185;41.506;24.938;2023-03-14T05:38:10;93648.38;;;-1.13;71.17
8294;BME280;4185;41.506;24.938;2023-03-14T05:40:37;93652.13;;;-1.11;70.63
8294;BME280;4185;41.506;24.938;2023-03-14T05:43:03;93647.50;;;-1.07;70.89
8294;BME280;4185;41.506;24.938;2023-03-14T05:45:33;93643.53;;;-0.99;70.68
8294;BME280;4185;41.506;24.938;2023-03-14T05:48:00;93641.63;;;-0.79;70.23
8294;BME280;4185;41.506;24.938;2023-03-14T05:50:26;93639.78;;;-0.62;69.60
8294;BME280;4185;41.506;24.938;2023-03-14T05:52:53;93637.25;;;-0.50;68.97
8294;BME280;4185;41.506;24.938;2023-03-14T05:55:21;93631.84;;;-0.46;68.57
8294;BME280;4185;41.506;24.938;2023-03-14T05:57:48;93634.03;;;-0.41;68.16
8294;BME280;4185;41.506;24.938;2023-03-14T06:00:16;93636.16;;;-0.33;68.30
8294;BME280;4185;41.506;24.938;2023-03-14T06:02:43;93629.91;;;-0.26;68.29
8294;BME280;4185;41.506;24.938;2023-03-14T06:05:10;93628.25;;;-0.20;68.63
8294;BME280;4185;41.506;24.938;2023-03-14T06:07:37;93626.53;;;-0.11;67.93
8294;BME280;4185;41.506;24.938;2023-03-14T06:10:05;93620.69;;;-0.06;68.07
8294;BME280;4185;41.506;24.938;2023-03-14T06:12:33;93614.63;;;0.10;68.34
8294;BME280;4185;41.506;24.938;2023-03-14T06:15:00;93621.25;;;0.22;67.48
8294;BME280;4185;41.506;24.938;2023-03-14T06:17:27;93627.91;;;0.30;66.67
8294;BME280;4185;41.506;24.938;2023-03-14T06:19:54;93619.75;;;0.37;66.79
8294;BME280;4185;41.506;24.938;2023-03-14T06:22:21;93621.81;;;0.45;66.66
8294;BME280;4185;41.506;24.938;2023-03-14T06:24:47;93614.88;;;0.48;65.88
8294;BME280;4185;41.506;24.938;2023-03-14T06:27:14;93611.13;;;0.61;66.51
8294;BME280;4185;41.506;24.938;2023-03-14T06:29:42;93608.69;;;0.83;66.88
8294;BME280;4185;41.506;24.938;2023-03-14T06:32:09;93608.38;;;0.93;66.48
8294;BME280;4185;41.506;24.938;2023-03-14T06:34:36;93606.94;;;1.05;65.72
8294;BME280;4185;41.506;24.938;2023-03-14T06:37:04;93600.47;;;1.18;64.86
8294;BME280;4185;41.506;24.938;2023-03-14T06:39:31;93599.13;;;1.27;64.25
8294;BME280;4185;41.506;24.938;2023-03-14T06:41:58;93598.69;;;1.28;63.32
8294;BME280;4185;41.506;24.938;2023-03-14T06:44:24;93589.28;;;1.36;63.05
8294;BME280;4185;41.506;24.938;2023-03-14T06:46:53;93589.63;;;1.51;62.85
8294;BME280;4185;41.506;24.938;2023-03-14T06:49:20;93582.50;;;1.60;62.21
8294;BME280;4185;41.506;24.938;2023-03-14T06:51:46;93584.66;;;1.65;60.82
8294;BME280;4185;41.506;24.938;2023-03-14T06:54:13;93585.59;;;1.71;60.27
8294;BME280;4185;41.506;24.938;2023-03-14T06:56:40;93577.38;;;1.78;59.80
8294;BME280;4185;41.506;24.938;2023-03-14T06:59:07;93577.16;;;1.85;60.19
8294;BME280;4185;41.506;24.938;2023-03-14T07:01:34;93569.25;;;1.94;58.56
8294;BME280;4185;41.506;24.938;2023-03-14T07:04:02;93558.94;;;2.05;59.58
8294;BME280;4185;41.506;24.938;2023-03-14T07:06:29;93559.38;;;2.16;59.25
8294;BME280;4185;41.506;24.938;2023-03-14T07:08:56;93559.34;;;2.29;59.03
8294;BME280;4185;41.506;24.938;2023-03-14T07:11:23;93555.59;;;2.39;59.53
8294;BME280;4185;41.506;24.938;2023-03-14T07:13:50;93551.09;;;2.48;58.95
8294;BME280;4185;41.506;24.938;2023-03-14T07:16:17;93548.78;;;2.60;58.47
8294;BME280;4185;41.506;24.938;2023-03-14T07:18:45;93551.75;;;2.74;57.68
8294;BME280;4185;41.506;24.938;2023-03-14T07:21:13;93544.88;;;2.86;57.28
8294;BME280;4185;41.506;24.938;2023-03-14T07:23:40;93544.34;;;3.00;55.90
8294;BME280;4185;41.506;24.938;2023-03-14T07:26:07;93537.03;;;3.13;54.38
8294;BME280;4185;41.506;24.938;2023-03-14T07:28:34;93534.69;;;3.24;54.39
8294;BME280;4185;41.506;24.938;2023-03-14T07:31:00;93545.53;;;3.42;55.71
8294;BME280;4185;41.506;24.938;2023-03-14T07:33:27;93533.97;;;3.54;54.73
8294;BME280;4185;41.506;24.938;2023-03-14T07:35:54;93531.34;;;3.63;54.01
8294;BME280;4185;41.506;24.938;2023-03-14T07:38:22;93530.22;;;3.73;53.76
8294;BME280;4185;41.506;24.938;2023-03-14T07:40:49;93530.53;;;3.84;53.68
8294;BME280;4185;41.506;24.938;2023-03-14T07:43:16;93530.16;;;3.95;52.73
8294;BME280;4185;41.506;24.938;2023-03-14T07:45:45;93523.16;;;4.06;53.20
8294;BME280;4185;41.506;24.938;2023-03-14T07:48:12;93526.19;;;4.17;53.34
8294;BME280;4185;41.506;24.938;2023-03-14T07:50:39;93519.66;;;4.27;52.20
8294;BME280;4185;41.506;24.938;2023-03-14T07:53:05;93516.41;;;4.41;52.54
8294;BME280;4185;41.506;24.938;2023-03-14T07:55:34;93514.03;;;4.52;51.72
8294;BME280;4185;41.506;24.938;2023-03-14T07:58:00;93506.72;;;4.62;50.09
8294;BME280;4185;41.506;24.938;2023-03-14T08:00:27;93502.41;;;4.73;50.87
8294;BME280;4185;41.506;24.938;2023-03-14T08:02:54;93498.53;;;4.83;50.85
8294;BME280;4185;41.506;24.938;2023-03-14T08:05:21;93492.06;;;4.99;49.44
8294;BME280;4185;41.506;24.938;2023-03-14T08:07:48;93484.16;;;5.14;48.97
8294;BME280;4185;41.506;24.938;2023-03-14T08:10:15;93481.72;;;5.25;48.93
8294;BME280;4185;41.506;24.938;2023-03-14T08:12:50;93486.50;;;5.39;49.15
8294;BME280;4185;41.506;24.938;2023-03-14T08:15:17;93476.72;;;5.50;48.01
8294;BME280;4185;41.506;24.938;2023-03-14T08:17:44;93473.88;;;5.63;48.16
8294;BME280;4185;41.506;24.938;2023-03-14T08:20:11;93474.72;;;5.78;48.62
8294;BME280;4185;41.506;24.938;2023-03-14T08:22:38;93480.97;;;5.93;49.26
8294;BME280;4185;41.506;24.938;2023-03-14T08:25:06;93491.97;;;6.04;49.56
8294;BME280;4185;41.506;24.938;2023-03-14T08:27:32;93482.22;;;6.15;46.92
8294;BME280;4185;41.506;24.938;2023-03-14T08:30:01;93479.88;;;6.32;46.49
8294;BME280;4185;41.506;24.938;2023-03-14T08:32:28;93470.66;;;6.48;45.32
8294;BME280;4185;41.506;24.938;2023-03-14T08:34:55;93466.94;;;6.60;45.99
8294;BME280;4185;41.506;24.938;2023-03-14T08:37:22;93469.41;;;6.72;45.53
8294;BME280;4185;41.506;24.938;2023-03-14T08:39:50;93463.50;;;6.83;45.71
8294;BME280;4185;41.506;24.938;2023-03-14T08:42:17;93463.97;;;6.96;46.54
8294;BME280;4185;41.506;24.938;2023-03-14T08:44:44;93464.47;;;7.09;46.24
8294;BME280;4185;41.506;24.938;2023-03-14T08:47:12;93458.03;;;7.21;44.82
8294;BME280;4185;41.506;24.938;2023-03-14T08:49:39;93456.09;;;7.36;44.79
8294;BME280;4185;41.506;24.938;2023-03-14T08:52:06;93439.63;;;7.49;44.56
8294;BME280;4185;41.506;24.938;2023-03-14T08:54:33;93439.31;;;7.61;44.67
8294;BME280;4185;41.506;24.938;2023-03-14T08:57:00;93437.63;;;7.78;43.51
8294;BME280;4185;41.506;24.938;2023-03-14T08:59:27;93433.69;;;7.94;43.22
8294;BME280;4185;41.506;24.938;2023-03-14T09:01:53;93424.50;;;8.06;41.83
8294;BME280;4185;41.506;24.938;2023-03-14T09:04:22;93422.22;;;8.19;42.88
8294;BME280;4185;41.506;24.938;2023-03-14T09:06:49;93409.41;;;8.34;42.48
8294;BME280;4185;41.506;24.938;2023-03-14T09:09:16;93411.31;;;8.48;41.59
8294;BME280;4185;41.506;24.938;2023-03-14T09:11:43;93411.03;;;8.66;41.36
8294;BME280;4185;41.506;24.938;2023-03-14T09:14:10;93409.69;;;8.76;41.12
8294;BME280;4185;41.506;24.938;2023-03-14T09:16:37;93408.53;;;8.83;37.89
8294;BME280;4185;41.506;24.938;2023-03-14T09:19:04;93402.47;;;8.93;38.59
8294;BME280;4185;41.506;24.938;2023-03-14T09:21:32;93401.38;;;9.05;39.43
8294;BME280;4185;41.506;24.938;2023-03-14T09:23:59;93393.38;;;9.16;39.55
8294;BME280;4185;41.506;24.938;2023-03-14T09:26:26;93392.81;;;9.38;36.98
8294;BME280;4185;41.506;24.938;2023-03-14T09:28:53;93384.75;;;9.49;37.49
8294;BME280;4185;41.506;24.938;2023-03-14T09:31:20;93378.69;;;9.59;35.11
8294;BME280;4185;41.506;24.938;2023-03-14T09:33:47;93378.56;;;9.74;34.01
8294;BME280;4185;41.506;24.938;2023-03-14T09:36:14;93370.53;;;9.91;34.00
8294;BME280;4185;41.506;24.938;2023-03-14T09:38:42;93376.06;;;10.07;32.69
8294;BME280;4185;41.506;24.938;2023-03-14T09:41:14;93365.53;;;10.15;31.23
8294;BME280;4185;41.506;24.938;2023-03-14T09:43:43;93358.63;;;10.19;31.66
8294;BME280;4185;41.506;24.938;2023-03-14T09:46:12;93358.94;;;10.32;29.89
8294;BME280;4185;41.506;24.938;2023-03-14T09:48:40;93352.81;;;10.43;30.85
8294;BME280;4185;41.506;24.938;2023-03-14T09:51:13;93348.19;;;10.54;29.59
8294;BME280;4185;41.506;24.938;2023-03-14T09:53:44;93336.63;;;10.65;28.83
8294;BME280;4185;41.506;24.938;2023-03-14T09:56:13;93334.91;;;10.78;29.32
8294;BME280;4185;41.506;24.938;2023-03-14T09:58:44;93334.69;;;10.93;28.79
8294;BME280;4185;41.506;24.938;2023-03-14T10:01:15;93330.00;;;11.04;30.24
8294;BME280;4185;41.506;24.938;2023-03-14T10:03:47;93320.66;;;11.17;30.91
8294;BME280;4185;41.506;24.938;2023-03-14T10:06:26;93325.59;;;11.29;32.49
8294;BME280;4185;41.506;24.938;2023-03-14T10:08:55;93309.28;;;11.51;34.00
8294;BME280;4185;41.506;24.938;2023-03-14T10:11:23;93317.22;;;11.71;35.08
8294;BME280;4185;41.506;24.938;2023-03-14T10:14:03;93311.00;;;11.87;34.95
8294;BME280;4185;41.506;24.938;2023-03-14T10:16:33;93309.22;;;12.01;35.44
8294;BME280;4185;41.506;24.938;2023-03-14T10:19:02;93308.72;;;12.13;35.47
8294;BME280;4185;41.506;24.938;2023-03-14T10:21:30;93305.94;;;12.24;35.20
8294;BME280;4185;41.506;24.938;2023-03-14T10:24:15;93298.97;;;12.35;35.00
8294;BME280;4185;41.506;24.938;2023-03-14T10:26:47;93283.59;;;12.43;31.04
8294;BME280;4185;41.506;24.938;2023-03-14T10:29:14;93293.47;;;12.51;31.68
8294;BME280;4185;41.506;24.938;2023-03-14T10:31:51;93283.03;;;12.55;31.12
8294;BME280;4185;41.506;24.938;2023-03-14T10:34:22;93258.81;;;12.46;31.58
8294;BME280;4185;41.506;24.938;2023-03-14T10:36:53;93276.50;;;12.75;31.38
8294;BME280;4185;41.506;24.938;2023-03-14T10:39:27;93264.47;;;12.94;32.40
8294;BME280;4185;41.506;24.938;2023-03-14T10:42:02;93258.19;;;13.10;32.17
8294;BME280;4185;41.506;24.938;2023-03-14T10:44:30;93258.84;;;13.22;31.07
8294;BME280;4185;41.506;24.938;2023-03-14T10:47:00;93260.25;;;13.34;30.04
8294;BME280;4185;41.506;24.938;2023-03-14T10:49:29;93246.25;;;13.43;30.77
8294;BME280;4185;41.506;24.938;2023-03-14T10:52:01;93236.66;;;13.36;29.32
8294;BME280;4185;41.506;24.938;2023-03-14T10:54:30;93238.31;;;13.45;29.48
8294;BME280;4185;41.506;24.938;2023-03-14T10:56:57;93233.06;;;13.53;29.13
8294;BME280;4185;41.506;24.938;2023-03-14T10:59:27;93229.97;;;13.62;29.22
8294;BME280;4185;41.506;24.938;2023-03-14T11:01:59;93219.28;;;13.64;29.20
8294;BME280;4185;41.506;24.938;2023-03-14T11:04:47;93216.91;;;13.79;28.93
8294;BME280;4185;41.506;24.938;2023-03-14T11:07:24;93215.09;;;13.87;29.14
8294;BME280;4185;41.506;24.938;2023-03-14T11:10:00;93202.16;;;13.87;28.57
8294;BME280;4185;41.506;24.938;2023-03-14T11:12:38;93199.88;;;13.91;28.68
8294;BME280;4185;41.506;24.938;2023-03-14T11:15:13;93187.94;;;13.94;28.68
8294;BME280;4185;41.506;24.938;2023-03-14T11:17:48;93200.78;;;13.99;28.62
8294;BME280;4185;41.506;24.938;2023-03-14T11:20:33;93194.41;;;14.15;28.29
8294;BME280;4185;41.506;24.938;2023-03-14T11:23:06;93192.31;;;14.21;28.30
8294;BME280;4185;41.506;24.938;2023-03-14T11:25:43;93173.16;;;14.45;29.31
8294;BME280;4185;41.506;24.938;2023-03-14T11:28:18;93177.22;;;14.57;28.04
8294;BME280;4185;41.506;24.938;2023-03-14T11:30:51;93173.81;;;14.51;28.04
8294;BME280;4185;41.506;24.938;2023-03-14T11:33:23;93172.47;;;14.58;28.04
8294;BME280;4185;41.506;24.938;2023-03-14T11:35:58;93173.28;;;14.53;28.02
8294;BME280;4185;41.506;24.938;2023-03-14T11:38:31;93160.00;;;14.62;28.04
8294;BME280;4185;41.506;24.938;2023-03-14T11:41:01;93157.53;;;14.78;28.23
8294;BME280;4185;41.506;24.938;2023-03-14T11:43:30;93152.41;;;14.87;27.89
8294;BME280;4185;41.506;24.938;2023-03-14T11:46:03;93144.88;;;14.93;27.47
8294;BME280;4185;41.506;24.938;2023-03-14T11:48:37;93148.25;;;15.12;27.89
8294;BME280;4185;41.506;24.938;2023-03-14T11:51:09;93135.25;;;15.18;27.56
8294;BME280;4185;41.506;24.938;2023-03-14T11:53:58;93132.59;;;15.13;27.28
8294;BME280;4185;41.506;24.938;2023-03-14T11:56:33;93129.25;;;15.20;27.71
8294;BME280;4185;41.506;24.938;2023-03-14T11:59:04;93134.75;;;15.46;27.03
8294;BME280;4185;41.506;24.938;2023-03-14T12:01:43;93124.66;;;15.41;27.04
8294;BME280;4185;41.506;24.938;2023-03-14T12:04:13;93117.94;;;15.42;26.70
8294;BME280;4185;41.506;24.938;2023-03-14T12:06:47;93112.34;;;15.47;26.57
8294;BME280;4185;41.506;24.938;2023-03-14T12:09:16;93110.34;;;15.61;26.61
8294;BME280;4185;41.506;24.938;2023-03-14T12:11:48;93104.75;;;15.66;26.19
8294;BME280;4185;41.506;24.938;2023-03-14T12:14:20;93096.22;;;15.83;26.55
8294;BME280;4185;41.506;24.938;2023-03-14T12:16:48;93097.13;;;16.12;26.76
8294;BME280;4185;41.506;24.938;2023-03-14T12:19:28;93094.56;;;16.27;26.58
8294;BME280;4185;41.506;24.938;2023-03-14T12:21:58;93089.84;;;16.48;25.89
8294;BME280;4185;41.506;24.938;2023-03-14T12:24:32;93088.75;;;16.30;25.02
8294;BME280;4185;41.506;24.938;2023-03-14T12:27:02;93083.94;;;16.10;25.33
8294;BME280;4185;41.506;24.938;2023-03-14T12:29:30;93083.81;;;16.16;25.20
8294;BME280;4185;41.506;24.938;2023-03-14T12:32:08;93072.97;;;16.23;25.38
8294;BME280;4185;41.506;24.938;2023-03-14T12:34:39;93084.16;;;16.46;25.28
8294;BME280;4185;41.506;24.938;2023-03-14T12:37:26;93073.66;;;16.37;24.66
8294;BME280;4185;41.506;24.938;2023-03-14T12:40:10;93066.41;;;16.26;24.83
8294;BME280;4185;41.506;24.938;2023-03-14T12:42:45;93052.81;;;16.54;25.15
8294;BME280;4185;41.506;24.938;2023-03-14T12:45:23;93044.25;;;16.78;24.79
8294;BME280;4185;41.506;24.938;2023-03-14T12:48:03;93041.22;;;17.10;25.21
8294;BME280;4185;41.506;24.938;2023-03-14T12:50:35;93043.13;;;17.23;24.13
8294;BME280;4185;41.506;24.938;2023-03-14T12:53:22;93042.25;;;17.28;24.47
8294;BME280;4185;41.506;24.938;2023-03-14T12:55:57;93029.91;;;17.42;24.47
8294;BME280;4185;41.506;24.938;2023-03-14T12:58:31;93029.41;;;17.51;23.29
8294;BME280;4185;41.506;24.938;2023-03-14T13:01:02;93028.81;;;17.45;23.29
8294;BME280;4185;41.506;24.938;2023-03-14T13:03:38;93027.22;;;17.49;23.52
8294;BME280;4185;41.506;24.938;2023-03-14T13:06:09;93025.28;;;17.65;23.33
8294;BME280;4185;41.506;24.938;2023-03-14T13:08:39;93022.78;;;17.82;23.29
8294;BME280;4185;41.506;24.938;2023-03-14T13:11:10;93013.00;;;18.09;23.24
8294;BME280;4185;41.506;24.938;2023-03-14T13:13:42;93017.19;;;18.02;22.53
8294;BME280;4185;41.506;24.938;2023-03-14T13:16:15;93010.19;;;17.94;23.01
8294;BME280;4185;41.506;24.938;2023-03-14T13:18:44;93017.06;;;18.23;23.02
8294;BME280;4185;41.506;24.938;2023-03-14T13:21:14;93006.59;;;18.14;22.59
8294;BME280;4185;41.506;24.938;2023-03-14T13:23:55;92999.13;;;18.37;22.78